Time;durP1;ratioP1;P1;durP2;ratioP2;P2;SDS_P1;SDS_P2;PMS_P1;PMS_P2;Temp;Humidity;BMP_temperature;BMP_pressure;BME280_temperature;BME280_humidity;BME280_pressure;Samples;Min_cycle;Max_cycle;Signal;HPM_P1;HPM_P2
2022/09/20 00:00:20;;;;;;;4.77;2.10;;;15.60;93.30;;;;;;4990875;28;20450;-73
2022/09/20 00:02:46;;;;;;;1.93;1.57;;;15.70;93.30;;;;;;4974635;28;20414;-73
2022/09/20 00:05:12;;;;;;;2.23;1.23;;;15.70;93.30;;;;;;4967342;28;20992;-72
2022/09/20 00:07:38;;;;;;;2.20;1.37;;;15.70;93.30;;;;;;4977374;28;20904;-73
2022/09/20 00:10:04;;;;;;;3.10;2.03;;;15.60;93.30;;;;;;4981681;28;20428;-73
2022/09/20 00:12:30;;;;;;;2.87;1.37;;;15.60;93.30;;;;;;4977658;28;20208;-72
2022/09/20 00:14:56;;;;;;;2.53;1.53;;;15.60;93.30;;;;;;4984985;28;20446;-72
2022/09/20 00:17:23;;;;;;;1.53;1.27;;;15.60;93.30;;;;;;4987815;28;20780;-73
2022/09/20 00:19:52;;;;;;;2.83;1.77;;;15.60;93.30;;;;;;4956468;28;20792;-72
2022/09/20 00:22:18;;;;;;;2.60;1.57;;;15.60;93.30;;;;;;4955332;29;20441;-72
2022/09/20 00:24:44;;;;;;;3.63;1.60;;;15.60;93.30;;;;;;4962822;28;20462;-72
2022/09/20 00:27:10;;;;;;;4.17;2.17;;;15.60;93.40;;;;;;4974667;28;20450;-73
2022/09/20 00:29:36;;;;;;;3.20;1.30;;;15.60;93.30;;;;;;4977984;28;20456;-72
2022/09/20 00:32:02;;;;;;;2.80;1.40;;;15.60;93.40;;;;;;4987069;28;20421;-73
2022/09/20 00:37:15;;;;;;;3.83;1.63;;;15.60;93.40;;;;;;4969045;28;20438;-72
2022/09/20 00:39:41;;;;;;;4.40;1.80;;;15.60;93.30;;;;;;4991108;28;20449;-73
2022/09/20 00:42:13;;;;;;;2.37;1.57;;;15.60;93.30;;;;;;4954065;28;20172;-72
2022/09/20 00:45:02;;;;;;;4.53;1.77;;;15.60;93.40;;;;;;4970827;28;21065;-73
2022/09/20 00:47:34;;;;;;;4.87;1.70;;;15.60;93.40;;;;;;4961458;28;20454;-72
2022/09/20 00:50:18;;;;;;;4.23;1.53;;;15.60;93.50;;;;;;4975513;28;20801;-73
2022/09/20 00:52:50;;;;;;;2.47;1.67;;;15.60;93.50;;;;;;4969605;28;20529;-72
2022/09/20 00:55:18;;;;;;;3.00;1.67;;;15.60;93.50;;;;;;4954226;29;20456;-72
2022/09/20 00:57:46;;;;;;;3.63;1.50;;;15.60;93.50;;;;;;4944410;28;20469;-72
2022/09/20 01:00:13;;;;;;;2.90;1.90;;;15.50;93.50;;;;;;4964255;28;20467;-72
2022/09/20 01:02:44;;;;;;;4.73;1.40;;;15.50;93.50;;;;;;4993237;28;20425;-73
2022/09/20 01:05:12;;;;;;;2.43;1.43;;;15.50;93.50;;;;;;4969617;28;20846;-72
2022/09/20 01:07:39;;;;;;;4.40;1.33;;;15.50;93.50;;;;;;4960631;28;20408;-73
2022/09/20 01:10:05;;;;;;;4.60;1.83;;;15.50;93.50;;;;;;4961065;28;20535;-72
2022/09/20 01:12:34;;;;;;;4.07;1.60;;;15.50;93.50;;;;;;4975568;28;20856;-73
2022/09/20 01:15:03;;;;;;;3.57;2.10;;;15.50;93.50;;;;;;4983723;28;21002;-73
2022/09/20 01:17:32;;;;;;;4.93;1.90;;;15.50;93.50;;;;;;4975412;28;20409;-73
2022/09/20 01:20:09;;;;;;;5.00;1.70;;;15.50;93.50;;;;;;4990574;28;22659;-73
2022/09/20 01:23:01;;;;;;;5.30;2.10;;;15.50;93.60;;;;;;4975022;28;20406;-73
2022/09/20 01:25:55;;;;;;;2.57;1.60;;;15.50;93.60;;;;;;4979474;28;21058;-73
2022/09/20 01:28:25;;;;;;;3.47;1.60;;;15.50;93.50;;;;;;4963878;28;20428;-73
2022/09/20 01:31:24;;;;;;;3.23;1.90;;;15.50;93.60;;;;;;4984803;28;20437;-72
2022/09/20 01:33:56;;;;;;;5.87;1.90;;;15.50;93.60;;;;;;4981639;28;20436;-72
2022/09/20 01:36:38;;;;;;;2.23;1.60;;;15.50;93.70;;;;;;4957367;28;20520;-73
2022/09/20 01:39:15;;;;;;;3.63;1.80;;;15.50;93.70;;;;;;4984322;28;21063;-73
2022/09/20 01:41:56;;;;;;;4.80;1.63;;;15.50;93.70;;;;;;4976757;28;20435;-73
2022/09/20 01:44:45;;;;;;;2.20;1.63;;;15.50;93.70;;;;;;4986420;28;20877;-72
2022/09/20 01:47:30;;;;;;;3.63;1.67;;;15.40;93.70;;;;;;4956160;28;20502;-72
2022/09/20 01:50:17;;;;;;;2.27;1.80;;;15.40;93.70;;;;;;4990767;28;20447;-72
2022/09/20 01:52:55;;;;;;;3.23;1.53;;;15.40;93.70;;;;;;4972376;28;20436;-72
2022/09/20 01:55:27;;;;;;;6.30;1.90;;;15.40;93.70;;;;;;4985811;28;20499;-73
2022/09/20 01:58:25;;;;;;;3.40;1.80;;;15.40;93.70;;;;;;4993387;28;20539;-72
2022/09/20 02:00:57;;;;;;;2.90;1.70;;;15.40;93.70;;;;;;4983231;28;20455;-72
2022/09/20 02:03:57;;;;;;;2.33;1.67;;;15.40;93.70;;;;;;4975818;28;20451;-73
2022/09/20 02:06:52;;;;;;;3.80;1.67;;;15.40;93.70;;;;;;4953381;29;20500;-73
2022/09/20 02:09:35;;;;;;;2.80;1.60;;;15.40;93.70;;;;;;4960973;28;20424;-73
2022/09/20 02:12:40;;;;;;;3.10;1.60;;;15.40;93.70;;;;;;4954858;28;20876;-73
2022/09/20 02:15:51;;;;;;;2.53;1.50;;;15.40;93.80;;;;;;4976825;28;20449;-73
2022/09/20 02:18:31;;;;;;;3.30;1.37;;;15.40;93.70;;;;;;4993076;28;20986;-73
2022/09/20 02:21:34;;;;;;;4.80;1.70;;;15.40;93.70;;;;;;4982363;28;20559;-72
2022/09/20 02:24:06;;;;;;;2.00;1.80;;;15.40;93.80;;;;;;4989627;28;20472;-72
2022/09/20 02:26:35;;;;;;;2.27;1.60;;;15.40;93.80;;;;;;4956576;28;20422;-73
2022/09/20 02:29:36;;;;;;;5.57;1.90;;;15.40;93.80;;;;;;4990247;28;20429;-73
2022/09/20 02:32:23;;;;;;;4.80;2.00;;;15.40;93.80;;;;;;4930779;29;20453;-73
2022/09/20 02:35:08;;;;;;;3.60;1.70;;;15.40;93.80;;;;;;4970292;28;20459;-72
2022/09/20 02:37:56;;;;;;;3.47;1.83;;;15.40;93.80;;;;;;4991632;28;20771;-73
2022/09/20 02:40:30;;;;;;;2.47;1.80;;;15.40;93.80;;;;;;4966026;28;20437;-73
2022/09/20 02:43:24;;;;;;;5.33;1.90;;;15.40;93.80;;;;;;4953803;28;20435;-73
2022/09/20 02:46:02;;;;;;;2.70;1.60;;;15.40;93.80;;;;;;4936846;29;20526;-73
2022/09/20 02:48:49;;;;;;;2.50;1.50;;;15.40;93.80;;;;;;4976467;28;20425;-73
2022/09/20 02:51:33;;;;;;;3.47;1.53;;;15.40;93.80;;;;;;4972432;28;20443;-73
2022/09/20 02:54:14;;;;;;;3.40;2.00;;;15.40;93.80;;;;;;4978797;28;20497;-73
2022/09/20 02:56:50;;;;;;;4.50;1.53;;;15.40;93.80;;;;;;4991452;28;20441;-73
2022/09/20 02:59:39;;;;;;;3.73;1.90;;;15.40;93.80;;;;;;4989649;28;20456;-73
2022/09/20 03:02:05;;;;;;;2.63;1.83;;;15.30;93.80;;;;;;4991426;28;20910;-73
2022/09/20 03:04:47;;;;;;;3.90;1.70;;;15.30;93.90;;;;;;4980481;28;20473;-73
2022/09/20 03:07:37;;;;;;;2.37;1.47;;;15.30;93.80;;;;;;4940084;28;20274;-73
2022/09/20 03:10:06;;;;;;;3.10;2.33;;;15.30;93.80;;;;;;4987092;28;20457;-72
2022/09/20 03:13:00;;;;;;;3.50;1.47;;;15.30;93.80;;;;;;4983638;28;20469;-73
2022/09/20 03:15:26;;;;;;;5.93;1.70;;;15.30;93.90;;;;;;4972919;28;20533;-72
2022/09/20 03:18:10;;;;;;;3.77;1.70;;;15.30;93.90;;;;;;4980066;28;20542;-72
2022/09/20 03:21:14;;;;;;;3.27;1.50;;;15.30;93.80;;;;;;4952797;28;20510;-72
2022/09/20 03:24:08;;;;;;;4.10;2.30;;;15.30;93.90;;;;;;4971286;28;20453;-72
2022/09/20 03:27:12;;;;;;;2.93;1.50;;;15.30;93.80;;;;;;4983702;28;20446;-73
2022/09/20 03:30:20;;;;;;;3.83;1.73;;;15.30;93.90;;;;;;4976190;28;20444;-74
2022/09/20 03:32:51;;;;;;;4.23;1.83;;;15.30;93.90;;;;;;4959455;28;20449;-71
2022/09/20 03:35:17;;;;;;;2.00;1.20;;;15.30;93.90;;;;;;4952075;29;20458;-72
2022/09/20 03:38:08;;;;;;;2.60;1.33;;;15.30;93.90;;;;;;4962688;28;20419;-73
2022/09/20 03:40:55;;;;;;;3.10;1.70;;;15.30;93.90;;;;;;4973094;28;20640;-71
2022/09/20 03:43:40;;;;;;;4.10;1.53;;;15.30;93.90;;;;;;4983423;28;20457;-70
2022/09/20 03:46:06;;;;;;;4.13;1.83;;;15.30;93.90;;;;;;4961230;28;20482;-72
2022/09/20 03:49:03;;;;;;;3.10;1.60;;;15.30;93.90;;;;;;4998842;28;20469;-72
2022/09/20 03:52:13;;;;;;;2.57;1.47;;;15.30;93.90;;;;;;4979002;28;20918;-72
2022/09/20 03:54:58;;;;;;;2.40;1.50;;;15.30;93.90;;;;;;4958565;28;20469;-72
2022/09/20 03:57:59;;;;;;;2.63;1.30;;;15.30;93.90;;;;;;4979556;28;20419;-72
2022/09/20 04:00:37;;;;;;;1.90;1.50;;;15.30;94.00;;;;;;4971417;28;20417;-72
2022/09/20 04:03:12;;;;;;;3.23;1.53;;;15.30;94.00;;;;;;4993697;28;20596;-72
2022/09/20 04:05:57;;;;;;;3.20;1.97;;;15.30;94.00;;;;;;4995462;28;20441;-72
2022/09/20 04:08:28;;;;;;;5.10;1.90;;;15.30;94.00;;;;;;4960042;28;20449;-72
2022/09/20 04:11:27;;;;;;;1.77;1.43;;;15.30;94.00;;;;;;4958925;28;20426;-72
2022/09/20 04:14:10;;;;;;;3.80;1.30;;;15.30;94.00;;;;;;4976896;28;20420;-71
2022/09/20 04:17:10;;;;;;;2.33;1.67;;;15.20;93.90;;;;;;4958517;28;20958;-72
2022/09/20 04:19:50;;;;;;;3.40;2.00;;;15.20;94.00;;;;;;4979679;28;20425;-73
2022/09/20 04:22:20;;;;;;;3.13;1.60;;;15.20;94.00;;;;;;4977637;28;20448;-71
2022/09/20 04:24:57;;;;;;;4.53;1.63;;;15.30;94.00;;;;;;4975039;28;20476;-71
2022/09/20 04:27:44;;;;;;;2.40;1.40;;;15.20;94.00;;;;;;4962043;28;20497;-72
2022/09/20 04:30:26;;;;;;;6.60;2.00;;;15.30;94.00;;;;;;4954445;29;20438;-72
2022/09/20 04:33:00;;;;;;;3.70;1.70;;;15.20;94.00;;;;;;4972749;28;20554;-71
2022/09/20 04:36:27;;;;;;;3.23;1.60;;;15.30;94.00;;;;;;4966292;28;20807;-74
2022/09/20 04:39:08;;;;;;;2.80;1.37;;;15.30;94.00;;;;;;4980687;28;20934;-72
2022/09/20 04:41:59;;;;;;;3.17;1.60;;;15.30;94.00;;;;;;4951112;28;20446;-72
2022/09/20 04:44:56;;;;;;;3.87;2.03;;;15.20;94.00;;;;;;4957909;28;20469;-73
2022/09/20 04:47:46;;;;;;;3.97;1.63;;;15.20;94.00;;;;;;4939148;29;20506;-73
2022/09/20 04:50:18;;;;;;;3.13;1.60;;;15.20;94.00;;;;;;4974211;28;20841;-72
2022/09/20 04:53:06;;;;;;;3.00;1.63;;;15.20;94.00;;;;;;4975155;28;20432;-72
2022/09/20 04:55:54;;;;;;;3.80;1.80;;;15.20;94.00;;;;;;4973114;28;20442;-72
2022/09/20 04:58:37;;;;;;;2.80;1.50;;;15.20;94.00;;;;;;4973921;28;20433;-72
2022/09/20 05:01:18;;;;;;;3.23;1.90;;;15.20;94.00;;;;;;4985720;28;20418;-72
2022/09/20 05:03:59;;;;;;;3.73;2.07;;;15.20;94.10;;;;;;4994542;28;21005;-72
2022/09/20 05:06:30;;;;;;;2.43;2.00;;;15.20;94.00;;;;;;4994254;28;20726;-72
2022/09/20 05:09:01;;;;;;;2.80;1.43;;;15.20;94.00;;;;;;4991951;28;20445;-72
2022/09/20 05:11:45;;;;;;;3.43;2.10;;;15.20;94.00;;;;;;4993175;28;20416;-72
2022/09/20 05:14:39;;;;;;;4.63;2.30;;;15.20;94.00;;;;;;4976805;28;20390;-72
2022/09/20 05:17:08;;;;;;;3.10;2.40;;;15.20;94.00;;;;;;4976675;28;20418;-72
2022/09/20 05:19:57;;;;;;;2.30;1.93;;;15.20;94.00;;;;;;4976515;28;20947;-72
2022/09/20 05:22:30;;;;;;;3.93;2.30;;;15.20;94.00;;;;;;4992075;28;20456;-72
2022/09/20 05:25:27;;;;;;;3.20;1.90;;;15.20;94.10;;;;;;4976345;28;20891;-72
2022/09/20 05:28:48;;;;;;;4.57;2.30;;;15.20;94.10;;;;;;4992835;28;20457;-72
2022/09/20 05:31:20;;;;;;;4.30;2.30;;;15.20;94.10;;;;;;4967820;28;20445;-72
2022/09/20 05:34:28;;;;;;;5.43;2.30;;;15.20;94.10;;;;;;4976788;28;20426;-73
2022/09/20 05:37:31;;;;;;;2.33;1.97;;;15.20;94.10;;;;;;4992620;28;20423;-72
2022/09/20 05:40:25;;;;;;;4.00;2.10;;;15.20;94.10;;;;;;4933256;29;20446;-72
2022/09/20 05:43:18;;;;;;;4.60;2.20;;;15.20;94.10;;;;;;4953960;29;20408;-71
2022/09/20 05:46:06;;;;;;;4.90;1.90;;;15.20;94.20;;;;;;4953961;29;20971;-72
2022/09/20 05:48:58;;;;;;;4.37;2.43;;;15.10;94.10;;;;;;4954776;28;20429;-72
2022/09/20 05:51:54;;;;;;;3.10;2.20;;;15.10;94.10;;;;;;4953773;29;20480;-72
2022/09/20 05:54:38;;;;;;;4.60;2.10;;;15.10;94.10;;;;;;4937677;29;20439;-72
2022/09/20 05:57:55;;;;;;;3.37;2.30;;;15.10;94.10;;;;;;4939826;29;20516;-72
2022/09/20 06:00:26;;;;;;;6.97;2.23;;;15.10;94.10;;;;;;4953609;29;20542;-72
2022/09/20 06:02:58;;;;;;;4.70;2.43;;;15.10;94.10;;;;;;4937325;29;20400;-72
2022/09/20 06:05:32;;;;;;;4.17;2.43;;;15.10;94.20;;;;;;4953488;29;20997;-72
2022/09/20 06:08:14;;;;;;;2.40;1.90;;;15.10;94.10;;;;;;4962551;28;20408;-72
2022/09/20 06:10:56;;;;;;;6.57;2.53;;;15.10;94.10;;;;;;4956041;28;20924;-72
2022/09/20 06:13:47;;;;;;;2.53;2.20;;;15.10;94.10;;;;;;4972600;28;20406;-72
2022/09/20 06:16:33;;;;;;;2.60;2.10;;;15.10;94.10;;;;;;4972576;28;20438;-72
2022/09/20 06:19:15;;;;;;;2.93;2.10;;;15.10;94.10;;;;;;4972568;28;20419;-72
2022/09/20 06:21:54;;;;;;;4.10;2.63;;;15.10;94.10;;;;;;4956197;28;20433;-72
2022/09/20 06:24:42;;;;;;;4.43;2.53;;;15.10;94.10;;;;;;5017237;23;20513;-73
2022/09/20 06:27:19;;;;;;;7.07;3.63;;;15.10;94.20;;;;;;4973045;28;21114;-72
2022/09/20 06:29:51;;;;;;;3.67;2.97;;;15.10;94.10;;;;;;4955890;28;20442;-73
2022/09/20 06:32:18;;;;;;;3.10;2.67;;;15.10;94.20;;;;;;4940304;28;20930;-72
2022/09/20 06:35:09;;;;;;;3.80;2.70;;;15.10;94.10;;;;;;4948153;28;20480;-72
2022/09/20 06:43:41;;;;;;;3.23;2.50;;;15.10;94.10;;;;;;4973432;28;20880;-72
2022/09/20 06:46:10;;;;;;;3.73;2.47;;;15.10;94.10;;;;;;4956160;28;20439;-73
2022/09/20 06:48:40;;;;;;;4.40;2.90;;;15.10;94.10;;;;;;4972007;28;20430;-72
2022/09/20 06:51:32;;;;;;;4.20;2.60;;;15.10;94.10;;;;;;4973122;28;21001;-72
2022/09/20 06:54:01;;;;;;;3.70;2.60;;;15.10;94.10;;;;;;4956574;28;20419;-73
2022/09/20 06:56:35;;;;;;;3.30;2.40;;;15.10;94.10;;;;;;4939877;28;20452;-72
2022/09/20 06:59:22;;;;;;;2.23;2.03;;;15.10;94.10;;;;;;4951696;28;20431;-72
2022/09/20 07:01:48;;;;;;;3.70;2.40;;;15.10;94.10;;;;;;4971972;28;20836;-72
2022/09/20 07:04:25;;;;;;;3.20;2.70;;;15.10;94.50;;;;;;4941298;28;20886;-72
2022/09/20 07:07:04;;;;;;;3.83;2.30;;;15.10;94.20;;;;;;4924457;28;20486;-72
2022/09/20 07:09:30;;;;;;;2.70;1.90;;;15.10;94.10;;;;;;4936792;29;20792;-72
2022/09/20 07:11:59;;;;;;;3.33;2.40;;;15.10;94.10;;;;;;4953815;29;20414;-72
2022/09/20 07:14:28;;;;;;;3.77;2.60;;;15.10;94.10;;;;;;4936529;29;20490;-72
2022/09/20 07:16:54;;;;;;;3.63;2.13;;;15.10;94.50;;;;;;4921323;29;20434;-72
2022/09/20 07:19:21;;;;;;;4.47;2.73;;;15.20;94.20;;;;;;4952985;28;20781;-72
2022/09/20 07:21:47;;;;;;;3.70;2.43;;;15.10;94.10;;;;;;4957034;29;20519;-72
2022/09/20 07:24:19;;;;;;;3.80;2.30;;;15.10;94.10;;;;;;4973495;28;20831;-72
2022/09/20 07:27:00;;;;;;;7.10;2.50;;;15.10;94.10;;;;;;4943424;28;20529;-72
2022/09/20 07:29:27;;;;;;;4.30;2.30;;;15.10;94.10;;;;;;4959534;28;20489;-72
2022/09/20 07:32:01;;;;;;;4.90;2.20;;;15.10;94.10;;;;;;4926700;28;20438;-72
2022/09/20 07:34:29;;;;;;;5.73;2.43;;;15.10;94.10;;;;;;4959510;28;20520;-72
2022/09/20 07:37:00;;;;;;;5.23;2.53;;;15.10;94.10;;;;;;4943864;28;20788;-73
2022/09/20 07:39:28;;;;;;;6.43;3.00;;;15.10;94.10;;;;;;4976289;28;20541;-73
2022/09/20 07:41:56;;;;;;;5.20;2.47;;;15.10;94.10;;;;;;4955914;28;20447;-73
2022/09/20 07:44:23;;;;;;;4.30;2.37;;;15.10;94.10;;;;;;4924226;29;20455;-72
2022/09/20 07:47:34;;;;;;;4.90;2.63;;;15.10;94.10;;;;;;4905492;29;20441;-72
2022/09/20 07:50:03;;;;;;;3.13;2.60;;;15.10;94.10;;;;;;4915881;29;20440;-72
2022/09/20 07:52:32;;;;;;;3.57;2.60;;;15.20;94.10;;;;;;4916720;29;20425;-72
2022/09/20 07:54:58;;;;;;;3.57;2.30;;;15.10;94.00;;;;;;4916496;29;20444;-72
2022/09/20 07:57:24;;;;;;;3.93;2.27;;;15.10;94.00;;;;;;4900880;29;20445;-73
2022/09/20 07:59:52;;;;;;;4.47;2.73;;;15.10;94.00;;;;;;4900726;29;20930;-72
2022/09/20 08:02:19;;;;;;;5.43;2.93;;;15.10;94.00;;;;;;4900789;29;20516;-72
2022/09/20 08:04:48;;;;;;;3.00;2.40;;;15.10;94.00;;;;;;4900562;29;20509;-72
2022/09/20 08:07:24;;;;;;;5.27;3.07;;;15.20;94.00;;;;;;4902632;29;20425;-72
2022/09/20 08:09:50;;;;;;;5.50;2.53;;;15.20;94.00;;;;;;4916119;29;20506;-72
2022/09/20 08:12:19;;;;;;;4.60;2.20;;;15.20;94.00;;;;;;4933279;28;20423;-72
2022/09/20 08:14:45;;;;;;;4.23;2.17;;;15.20;94.00;;;;;;4954471;28;20468;-73
2022/09/20 08:17:12;;;;;;;3.90;2.70;;;15.20;94.10;;;;;;4923642;29;20464;-72
2022/09/20 08:19:38;;;;;;;5.60;2.50;;;15.20;94.10;;;;;;4923892;29;20436;-72
2022/09/20 08:22:05;;;;;;;5.50;2.60;;;15.20;94.10;;;;;;4956685;29;20538;-72
2022/09/20 08:24:34;;;;;;;4.87;2.70;;;15.20;94.10;;;;;;4923414;29;20475;-72
2022/09/20 08:27:00;;;;;;;4.70;2.27;;;15.20;94.10;;;;;;4939368;29;20404;-72
2022/09/20 08:29:26;;;;;;;7.13;2.70;;;15.20;94.10;;;;;;4939160;29;20407;-72
2022/09/20 08:31:54;;;;;;;5.47;2.50;;;15.20;94.10;;;;;;4955488;28;20408;-72
2022/09/20 08:34:20;;;;;;;4.17;2.70;;;15.20;94.20;;;;;;4923417;29;20515;-72
2022/09/20 08:36:48;;;;;;;3.00;1.90;;;15.20;94.20;;;;;;4956484;29;20407;-72
2022/09/20 08:39:15;;;;;;;5.57;2.63;;;15.20;94.20;;;;;;4962888;28;20454;-72
2022/09/20 08:41:46;;;;;;;7.63;3.53;;;15.20;94.20;;;;;;4942492;28;20415;-72
2022/09/20 08:44:24;;;;;;;4.00;2.63;;;15.20;94.20;;;;;;4942167;28;20486;-72
2022/09/20 08:47:01;;;;;;;7.53;2.93;;;15.30;94.20;;;;;;4975205;28;20441;-72
2022/09/20 08:49:30;;;;;;;5.30;2.63;;;15.20;94.20;;;;;;4975702;28;20417;-72
2022/09/20 08:51:57;;;;;;;4.30;2.60;;;15.30;94.30;;;;;;4974365;28;20441;-73
2022/09/20 08:54:32;;;;;;;12.93;6.57;;;15.30;94.30;;;;;;4941984;28;20487;-73
2022/09/20 08:57:10;;;;;;;16.83;6.43;;;15.30;94.30;;;;;;4953134;28;20437;-73
2022/09/20 08:59:39;;;;;;;12.47;5.20;;;15.30;94.40;;;;;;4942204;28;20459;-72
2022/09/20 09:02:14;;;;;;;10.63;5.47;;;15.30;94.40;;;;;;4957870;28;20415;-73
2022/09/20 09:04:42;;;;;;;10.07;4.03;;;15.30;94.30;;;;;;4957622;28;20466;-72
2022/09/20 09:07:15;;;;;;;11.37;4.70;;;15.30;94.40;;;;;;4941965;28;20541;-72
2022/09/20 09:09:46;;;;;;;11.70;5.13;;;15.40;94.40;;;;;;4986111;28;20417;-72
2022/09/20 09:12:31;;;;;;;9.60;4.60;;;15.40;94.30;;;;;;4977200;28;20434;-72
2022/09/20 09:15:02;;;;;;;8.60;4.70;;;15.40;94.30;;;;;;4977123;28;20455;-72
2022/09/20 09:17:29;;;;;;;8.13;4.27;;;15.40;94.30;;;;;;4994256;28;20761;-72
2022/09/20 09:20:07;;;;;;;7.47;3.67;;;15.40;94.30;;;;;;4976995;28;20425;-72
2022/09/20 09:22:46;;;;;;;6.70;3.70;;;15.50;94.30;;;;;;4959486;28;20402;-72
2022/09/20 09:25:15;;;;;;;9.07;3.97;;;15.50;94.20;;;;;;4973296;28;20482;-72
2022/09/20 09:28:01;;;;;;;9.53;4.03;;;15.50;94.50;;;;;;4973573;28;20490;-72
2022/09/20 09:30:39;;;;;;;7.87;4.00;;;15.50;94.10;;;;;;4941534;28;20460;-72
2022/09/20 09:33:17;;;;;;;9.50;4.10;;;15.50;94.10;;;;;;4957298;28;20420;-72
2022/09/20 09:36:13;;;;;;;7.40;3.33;;;15.50;94.10;;;;;;4941389;28;20447;-72
2022/09/20 09:38:47;;;;;;;9.33;3.10;;;15.50;94.00;;;;;;4957378;28;20536;-72
2022/09/20 09:41:28;;;;;;;6.43;3.00;;;15.50;94.00;;;;;;4957431;28;20420;-72
2022/09/20 09:44:04;;;;;;;8.30;2.97;;;15.60;94.00;;;;;;4937688;29;20469;-72
2022/09/20 09:46:37;;;;;;;6.00;2.80;;;15.60;94.00;;;;;;4954787;29;20404;-72
2022/09/20 09:49:20;;;;;;;4.20;2.60;;;15.60;94.00;;;;;;4969545;28;20853;-72
2022/09/20 09:52:02;;;;;;;3.80;2.50;;;15.60;94.00;;;;;;4938238;29;20427;-72
2022/09/20 09:54:37;;;;;;;7.60;2.83;;;15.60;94.00;;;;;;4937775;29;20519;-72
2022/09/20 09:57:27;;;;;;;4.97;2.63;;;15.60;93.90;;;;;;4969547;28;20413;-72
2022/09/20 10:00:20;;;;;;;6.77;2.70;;;15.60;93.90;;;;;;4922162;29;20423;-72
2022/09/20 10:03:11;;;;;;;5.67;3.33;;;15.60;93.80;;;;;;4954654;29;20949;-72
2022/09/20 10:06:22;;;;;;;4.50;2.10;;;15.60;93.80;;;;;;4954726;29;20442;-72
2022/09/20 10:09:15;;;;;;;5.53;2.40;;;15.70;93.80;;;;;;4937299;29;20417;-72
2022/09/20 10:11:51;;;;;;;2.90;2.40;;;15.60;93.70;;;;;;4967602;28;20447;-72
2022/09/20 10:14:30;;;;;;;6.77;2.37;;;15.70;93.80;;;;;;4972790;28;20872;-72
2022/09/20 10:16:56;;;;;;;2.63;2.00;;;15.70;93.80;;;;;;4957002;28;20774;-73
2022/09/20 10:19:39;;;;;;;5.13;2.17;;;15.70;93.70;;;;;;4940519;28;20431;-73
2022/09/20 10:22:45;;;;;;;4.70;2.20;;;15.70;93.70;;;;;;4956366;28;20427;-73
2022/09/20 10:25:42;;;;;;;6.33;2.60;;;15.70;93.80;;;;;;4956218;28;20541;-73
2022/09/20 10:28:47;;;;;;;6.50;2.30;;;15.70;93.80;;;;;;4956281;28;20441;-73
2022/09/20 10:31:41;;;;;;;3.53;2.13;;;15.70;93.80;;;;;;4972473;28;20423;-73
2022/09/20 10:34:19;;;;;;;5.77;2.60;;;15.70;93.90;;;;;;4956197;28;20409;-72
2022/09/20 10:36:54;;;;;;;4.47;2.20;;;15.70;93.90;;;;;;4940423;28;20437;-73
2022/09/20 10:39:37;;;;;;;3.77;2.13;;;15.80;93.90;;;;;;4952623;28;20611;-72
2022/09/20 10:45:12;;;;;;;13.83;4.53;;;15.80;94.00;;;;;;4936494;29;20527;-72
2022/09/20 10:48:01;;;;;;;9.70;3.60;;;15.80;94.00;;;;;;4936433;29;20426;-72
2022/09/20 10:50:42;;;;;;;8.03;3.73;;;15.80;94.30;;;;;;4936932;29;20425;-72
2022/09/20 10:53:31;;;;;;;9.50;3.73;;;15.80;93.90;;;;;;4937072;29;20408;-72
2022/09/20 10:56:35;;;;;;;8.80;3.57;;;15.80;93.80;;;;;;4936509;29;20524;-72
2022/09/20 10:59:43;;;;;;;8.17;3.73;;;15.90;93.80;;;;;;4936689;29;20413;-73
2022/09/20 11:02:34;;;;;;;8.77;2.90;;;15.90;93.80;;;;;;4941048;29;20457;-73
2022/09/20 11:05:19;;;;;;;8.70;3.83;;;15.90;93.80;;;;;;4952640;29;20471;-73
2022/09/20 11:08:03;;;;;;;8.87;3.60;;;15.90;93.80;;;;;;4936060;28;20466;-73
2022/09/20 11:10:45;;;;;;;8.00;3.60;;;15.90;93.80;;;;;;4936744;29;20423;-73
2022/09/20 11:13:19;;;;;;;7.33;3.30;;;15.90;93.80;;;;;;4936806;29;20412;-72
2022/09/20 11:15:59;;;;;;;7.77;2.90;;;15.90;93.70;;;;;;4936589;29;20443;-73
2022/09/20 11:18:37;;;;;;;8.37;3.30;;;15.90;93.70;;;;;;4953739;29;20618;-73
2022/09/20 11:21:20;;;;;;;7.50;2.77;;;16.00;93.70;;;;;;4953653;29;20959;-72
2022/09/20 11:24:19;;;;;;;6.23;2.80;;;16.00;93.70;;;;;;4952551;29;20481;-73
2022/09/20 11:26:54;;;;;;;6.17;2.57;;;16.00;93.60;;;;;;4952687;29;20961;-73
2022/09/20 11:29:34;;;;;;;3.90;2.10;;;16.00;93.60;;;;;;4936416;29;20410;-73
2022/09/20 11:32:14;;;;;;;5.27;2.53;;;16.00;93.60;;;;;;4936343;29;20432;-73
2022/09/20 11:34:52;;;;;;;6.27;2.87;;;16.00;93.60;;;;;;4936479;29;20461;-73
2022/09/20 11:37:54;;;;;;;4.57;2.40;;;16.10;93.60;;;;;;4955906;28;20439;-73
2022/09/20 11:40:31;;;;;;;5.10;2.70;;;16.10;93.50;;;;;;4974829;28;20449;-73
2022/09/20 11:43:04;;;;;;;3.97;2.00;;;16.10;93.50;;;;;;4974615;28;20417;-73
2022/09/20 11:45:36;;;;;;;3.67;1.97;;;16.10;93.40;;;;;;4974613;28;20465;-72
2022/09/20 11:48:28;;;;;;;3.10;1.97;;;16.10;93.30;;;;;;4958857;28;20477;-73
2022/09/20 11:51:15;;;;;;;6.90;2.30;;;16.20;93.30;;;;;;4974989;28;20402;-73
2022/09/20 11:54:27;;;;;;;7.10;2.30;;;16.20;93.30;;;;;;4974767;28;20458;-73
2022/09/20 11:56:56;;;;;;;3.73;2.00;;;16.20;93.20;;;;;;4992231;28;20842;-73
2022/09/20 11:59:29;;;;;;;3.57;1.87;;;16.20;93.20;;;;;;4992181;28;20577;-73
2022/09/20 12:02:01;;;;;;;2.83;2.03;;;16.20;93.20;;;;;;4974939;28;20421;-73
2022/09/20 12:04:34;;;;;;;5.00;2.93;;;16.30;93.20;;;;;;4991984;28;20465;-73
2022/09/20 12:07:22;;;;;;;3.93;2.17;;;16.30;93.20;;;;;;4994541;28;20418;-73
2022/09/20 12:09:57;;;;;;;4.90;2.20;;;16.30;93.20;;;;;;4949412;28;20522;-72
2022/09/20 12:12:31;;;;;;;2.10;1.57;;;16.30;93.20;;;;;;4958948;28;20410;-73
2022/09/20 12:15:04;;;;;;;4.00;1.87;;;16.30;93.20;;;;;;4939234;29;20462;-73
2022/09/20 12:17:46;;;;;;;4.37;1.90;;;16.30;93.20;;;;;;4939691;29;20412;-73
2022/09/20 12:20:33;;;;;;;2.73;1.87;;;16.30;93.20;;;;;;4939731;29;20851;-73
2022/09/20 12:23:41;;;;;;;6.90;2.50;;;16.30;93.20;;;;;;4933826;29;20551;-73
2022/09/20 12:26:21;;;;;;;3.50;1.60;;;16.30;93.20;;;;;;4955455;29;20434;-72
2022/09/20 12:29:25;;;;;;;5.40;1.63;;;16.30;93.20;;;;;;4956414;29;20447;-73
2022/09/20 12:31:57;;;;;;;4.03;2.03;;;16.40;93.20;;;;;;4956245;29;20507;-73
2022/09/20 12:34:23;;;;;;;3.10;1.80;;;16.30;93.10;;;;;;4939390;29;20782;-73
2022/09/20 12:36:58;;;;;;;3.20;1.67;;;16.40;93.10;;;;;;4956447;29;20556;-73
2022/09/20 12:39:35;;;;;;;2.60;1.77;;;16.40;93.10;;;;;;4956182;29;20411;-74
2022/09/20 12:42:03;;;;;;;3.33;1.60;;;16.40;93.00;;;;;;4939184;29;20519;-73
2022/09/20 12:44:36;;;;;;;4.30;1.77;;;16.40;93.00;;;;;;4945857;28;20466;-73
2022/09/20 12:47:09;;;;;;;2.23;1.40;;;16.40;92.90;;;;;;4977769;28;20454;-73
2022/09/20 12:55:29;;;;;;;2.93;1.83;;;16.50;92.70;;;;;;4958047;28;20514;-73
2022/09/20 12:58:18;;;;;;;2.20;1.60;;;16.50;92.70;;;;;;4942156;28;20440;-73
2022/09/20 13:00:59;;;;;;;2.67;1.73;;;16.50;92.60;;;;;;4975438;28;20453;-73
2022/09/20 13:03:43;;;;;;;3.23;2.00;;;16.50;92.60;;;;;;4974992;28;20932;-74
2022/09/20 13:06:29;;;;;;;5.73;1.70;;;16.50;92.50;;;;;;4941977;28;20490;-72
2022/09/20 13:09:07;;;;;;;2.47;1.40;;;16.50;92.40;;;;;;4975002;28;20447;-73
2022/09/20 13:11:39;;;;;;;2.60;1.63;;;16.60;92.50;;;;;;4957181;28;20455;-73
2022/09/20 13:14:25;;;;;;;3.10;1.60;;;16.60;92.40;;;;;;4957612;28;20967;-73
2022/09/20 13:17:13;;;;;;;2.77;1.40;;;16.60;92.20;;;;;;4957503;28;20393;-73
2022/09/20 13:19:45;;;;;;;2.10;1.67;;;16.60;92.10;;;;;;4957345;28;20898;-73
2022/09/20 13:22:13;;;;;;;2.60;1.73;;;16.60;92.10;;;;;;4957863;28;20453;-73
2022/09/20 13:24:43;;;;;;;2.10;1.60;;;16.60;92.00;;;;;;4941253;28;20477;-73
2022/09/20 13:27:20;;;;;;;2.43;1.50;;;16.60;92.10;;;;;;4973443;28;20981;-74
2022/09/20 13:29:46;;;;;;;2.13;1.60;;;16.70;92.10;;;;;;4974710;28;20443;-73
2022/09/20 13:32:25;;;;;;;3.87;1.73;;;16.70;92.00;;;;;;4974628;28;20407;-73
2022/09/20 13:35:09;;;;;;;2.53;1.47;;;16.70;92.00;;;;;;4941543;28;20972;-73
2022/09/20 13:37:57;;;;;;;2.63;1.23;;;16.70;92.00;;;;;;4957126;28;20547;-73
2022/09/20 13:40:39;;;;;;;3.53;1.60;;;16.70;91.90;;;;;;4957231;28;20401;-72
2022/09/20 13:43:31;;;;;;;5.10;1.53;;;16.70;91.90;;;;;;4938514;29;20440;-73
2022/09/20 13:46:07;;;;;;;3.03;1.60;;;16.70;91.90;;;;;;4953973;29;20456;-72
2022/09/20 13:48:33;;;;;;;2.13;1.47;;;16.80;91.90;;;;;;4937844;29;20445;-72
2022/09/20 13:51:02;;;;;;;2.47;1.40;;;16.80;91.90;;;;;;4922373;29;20571;-73
2022/09/20 13:53:34;;;;;;;2.33;1.53;;;16.80;91.80;;;;;;4940666;28;20442;-72
2022/09/20 13:56:10;;;;;;;3.47;1.40;;;16.80;91.90;;;;;;4976319;28;20877;-73
2022/09/20 13:58:37;;;;;;;1.50;1.40;;;16.80;91.80;;;;;;4993508;28;20404;-73
2022/09/20 14:01:19;;;;;;;1.77;1.10;;;16.90;91.90;;;;;;4993401;28;20779;-73
2022/09/20 14:03:48;;;;;;;2.57;1.37;;;16.90;91.90;;;;;;4970852;28;20557;-73
2022/09/20 14:06:17;;;;;;;3.07;1.33;;;16.90;91.90;;;;;;4993428;28;20436;-72